createdAt,value
2023-02-08T00:00:15.788Z,50.28
2023-02-08T00:02:42.893Z,50.28
2023-02-08T00:05:09.869Z,50.43
2023-02-08T00:07:36.780Z,50.68
2023-02-08T00:10:06.830Z,50.66
2023-02-08T00:12:34.675Z,50.68
2023-02-08T00:15:01.656Z,50.50
2023-02-08T00:17:28.988Z,50.76
2023-02-08T00:19:55.901Z,50.76
2023-02-08T00:22:23.040Z,50.94
2023-02-08T00:24:51.555Z,51.14
2023-02-08T00:27:18.598Z,51.15
2023-02-08T00:29:45.614Z,51.13
2023-02-08T00:32:12.801Z,51.13
2023-02-08T00:34:39.826Z,51.10
2023-02-08T00:37:07.086Z,51.01
2023-02-08T00:39:34.021Z,50.96
2023-02-08T00:42:01.026Z,51.29
2023-02-08T00:44:28.386Z,51.31
2023-02-08T00:46:55.587Z,51.37
2023-02-08T00:49:22.597Z,51.32
2023-02-08T00:51:49.582Z,51.42
2023-02-08T00:54:18.710Z,51.48
2023-02-08T00:56:46.449Z,51.30
2023-02-08T00:59:13.948Z,51.15
2023-02-08T01:01:41.579Z,51.55
2023-02-08T01:04:08.558Z,51.97
2023-02-08T01:06:35.530Z,51.90
2023-02-08T01:09:02.589Z,51.54
2023-02-08T01:11:29.579Z,52.06
2023-02-08T01:13:57.823Z,52.46
2023-02-08T01:16:29.176Z,52.09
2023-02-08T01:18:57.668Z,52.22
2023-02-08T01:21:27.819Z,52.41
2023-02-08T01:23:56.298Z,52.42
2023-02-08T01:26:24.484Z,52.53
2023-02-08T01:28:52.858Z,52.76
2023-02-08T01:31:23.330Z,52.76
2023-02-08T01:33:50.568Z,53.03
2023-02-08T01:36:17.962Z,53.28
2023-02-08T01:38:45.703Z,53.07
2023-02-08T01:41:24.617Z,53.34
2023-02-08T01:44:13.747Z,53.51
2023-02-08T01:46:43.252Z,52.91
2023-02-08T01:49:29.997Z,52.99
2023-02-08T01:52:14.900Z,53.24
2023-02-08T01:54:53.089Z,53.14
2023-02-08T01:57:22.364Z,53.02
2023-02-08T01:59:55.863Z,53.13
2023-02-08T02:02:23.843Z,53.32
2023-02-08T02:04:51.242Z,53.61
2023-02-08T02:07:20.354Z,53.41
2023-02-08T02:09:53.642Z,53.59
2023-02-08T02:12:21.502Z,53.43
2023-02-08T02:14:51.155Z,53.55
2023-02-08T02:17:20.097Z,53.38
2023-02-08T02:20:05.145Z,53.55
2023-02-08T02:22:32.178Z,53.52
2023-02-08T02:25:25.845Z,54.17
2023-02-08T02:28:30.463Z,54.00
2023-02-08T02:31:00.200Z,53.64
2023-02-08T02:33:35.554Z,53.67
2023-02-08T02:36:21.304Z,53.25
2023-02-08T02:39:03.565Z,53.65
2023-02-08T02:41:52.192Z,53.57
2023-02-08T02:44:36.944Z,53.25
2023-02-08T02:47:19.355Z,53.22
2023-02-08T02:49:50.766Z,53.11
2023-02-08T02:52:28.567Z,53.58
2023-02-08T02:55:01.377Z,53.28
2023-02-08T02:57:32.770Z,53.14
2023-02-08T03:00:00.389Z,53.70
2023-02-08T03:02:28.420Z,53.55
2023-02-08T03:04:56.149Z,53.71
2023-02-08T03:07:42.160Z,53.48
2023-02-08T03:10:21.914Z,53.77
2023-02-08T03:13:07.509Z,53.61
2023-02-08T03:15:49.461Z,53.61
2023-02-08T03:18:36.913Z,53.89
2023-02-08T03:21:30.000Z,53.74
2023-02-08T03:24:47.661Z,53.59
2023-02-08T03:27:39.270Z,54.10
2023-02-08T03:30:24.781Z,54.13
2023-02-08T03:32:58.912Z,53.90
2023-02-08T03:35:28.181Z,54.01
2023-02-08T03:37:58.027Z,53.79
2023-02-08T03:40:30.283Z,53.87
2023-02-08T03:43:01.723Z,53.71
2023-02-08T03:45:38.206Z,53.66
2023-02-08T03:48:09.079Z,53.89
2023-02-08T03:50:40.356Z,53.68
2023-02-08T03:53:09.444Z,53.96
2023-02-08T03:55:39.158Z,53.96
2023-02-08T03:58:16.139Z,53.85
2023-02-08T04:00:48.959Z,54.00
2023-02-08T04:03:28.948Z,54.02
2023-02-08T04:05:56.065Z,53.69
2023-02-08T04:08:23.184Z,54.02
2023-02-08T04:10:50.176Z,54.41
2023-02-08T04:13:17.149Z,53.94
2023-02-08T04:15:44.547Z,53.88
2023-02-08T04:18:11.686Z,54.41
2023-02-08T04:20:38.932Z,54.83
2023-02-08T04:23:06.127Z,55.03
2023-02-08T04:25:33.067Z,55.31
2023-02-08T04:28:00.140Z,55.92
2023-02-08T04:30:27.280Z,55.76
2023-02-08T04:32:54.278Z,55.65
2023-02-08T04:35:21.311Z,55.66
2023-02-08T04:37:48.344Z,54.85
2023-02-08T04:40:15.250Z,54.66
2023-02-08T04:42:42.264Z,54.72
2023-02-08T04:45:10.330Z,54.15
2023-02-08T04:47:37.198Z,54.97
2023-02-08T04:50:04.932Z,55.01
2023-02-08T04:52:31.981Z,54.96
2023-02-08T04:54:58.903Z,54.91
2023-02-08T04:57:25.843Z,54.55
2023-02-08T04:59:52.942Z,54.35
2023-02-08T05:02:20.284Z,54.61
2023-02-08T05:04:47.210Z,54.78
2023-02-08T05:07:14.201Z,54.15
2023-02-08T05:09:41.148Z,54.78
2023-02-08T05:12:08.334Z,55.55
2023-02-08T05:14:35.301Z,55.68
2023-02-08T05:17:02.239Z,55.44
2023-02-08T05:19:29.404Z,55.78
2023-02-08T05:21:56.424Z,55.61
2023-02-08T05:24:23.447Z,55.67
2023-02-08T05:26:50.585Z,55.87
2023-02-08T05:29:17.668Z,55.86
2023-02-08T05:31:44.734Z,55.91
2023-02-08T05:34:12.524Z,55.80
2023-02-08T05:36:39.612Z,55.69
2023-02-08T05:39:07.169Z,55.54
2023-02-08T05:41:34.221Z,55.23
2023-02-08T05:44:01.244Z,54.88
2023-02-08T05:46:28.333Z,54.90
2023-02-08T05:48:55.818Z,54.59
2023-02-08T05:51:22.919Z,54.98
2023-02-08T05:53:49.936Z,55.13
2023-02-08T05:56:17.021Z,55.21
2023-02-08T05:58:44.100Z,55.66
2023-02-08T06:01:13.098Z,55.66
2023-02-08T06:03:40.935Z,55.60
2023-02-08T06:06:11.349Z,55.68
2023-02-08T06:08:39.362Z,55.69
2023-02-08T06:11:07.488Z,55.30
2023-02-08T06:13:34.687Z,55.08
2023-02-08T06:16:01.814Z,54.85
2023-02-08T06:18:28.965Z,54.63
2023-02-08T06:20:55.980Z,54.62
2023-02-08T06:23:25.313Z,54.61
2023-02-08T06:25:52.897Z,54.57
2023-02-08T06:28:19.980Z,54.35
2023-02-08T06:30:50.439Z,53.58
2023-02-08T06:33:18.301Z,53.49
2023-02-08T06:36:03.461Z,53.06
2023-02-08T06:38:30.571Z,52.98
2023-02-08T06:40:57.701Z,52.60
2023-02-08T06:43:25.003Z,52.31
2023-02-08T06:45:52.051Z,52.00
2023-02-08T06:48:19.103Z,52.05
2023-02-08T06:50:46.159Z,52.68
2023-02-08T06:53:13.226Z,52.21
2023-02-08T06:55:40.286Z,52.79
2023-02-08T06:58:07.391Z,52.88
2023-02-08T07:00:34.397Z,52.30
2023-02-08T07:03:01.486Z,52.59
2023-02-08T07:05:28.711Z,52.48
2023-02-08T07:07:55.763Z,52.53
2023-02-08T07:10:22.759Z,52.42
2023-02-08T07:12:49.789Z,52.71
2023-02-08T07:15:17.121Z,52.56
2023-02-08T07:17:44.141Z,52.03
2023-02-08T07:20:11.898Z,52.39
2023-02-08T07:22:40.039Z,51.90
2023-02-08T07:25:07.745Z,52.36
2023-02-08T07:27:34.982Z,52.44
2023-02-08T07:30:02.442Z,52.49
2023-02-08T07:32:29.624Z,52.61
2023-02-08T07:34:56.662Z,52.60
2023-02-08T07:37:23.707Z,52.37
2023-02-08T07:39:50.785Z,51.95
2023-02-08T07:42:17.803Z,52.12
2023-02-08T07:44:55.384Z,52.07
2023-02-08T07:47:22.485Z,51.45
2023-02-08T07:49:49.589Z,51.55
2023-02-08T07:52:16.566Z,51.22
2023-02-08T07:54:43.564Z,51.30
2023-02-08T07:57:10.628Z,51.40
2023-02-08T07:59:37.565Z,51.75
2023-02-08T08:02:04.609Z,51.75
2023-02-08T08:04:31.746Z,52.40
2023-02-08T08:06:58.765Z,52.23
2023-02-08T08:09:25.904Z,52.23
2023-02-08T08:11:52.926Z,51.91
2023-02-08T08:14:20.031Z,52.29
2023-02-08T08:16:47.047Z,51.89
2023-02-08T08:19:14.065Z,51.60
2023-02-08T08:21:41.110Z,51.78
2023-02-08T08:24:08.250Z,52.23
2023-02-08T08:26:35.465Z,52.31
2023-02-08T08:29:03.270Z,52.23
2023-02-08T08:31:31.137Z,52.30
2023-02-08T08:33:58.361Z,52.19
2023-02-08T08:36:25.333Z,51.71
2023-02-08T08:38:52.305Z,50.17
2023-02-08T08:41:19.449Z,49.67
2023-02-08T08:43:46.556Z,49.43
2023-02-08T08:46:13.940Z,49.24
2023-02-08T08:48:41.009Z,48.67
2023-02-08T08:51:08.532Z,48.42
2023-02-08T08:53:37.242Z,48.71
2023-02-08T08:56:05.310Z,48.27
2023-02-08T08:58:32.526Z,48.41
2023-02-08T09:01:00.565Z,48.01
2023-02-08T09:03:28.822Z,48.24
2023-02-08T09:05:56.207Z,47.54
2023-02-08T09:08:23.274Z,47.77
2023-02-08T09:10:50.480Z,47.52
2023-02-08T09:13:20.137Z,47.04
2023-02-08T09:15:48.218Z,46.63
2023-02-08T09:18:15.264Z,46.68
2023-02-08T09:20:42.763Z,46.80
2023-02-08T09:23:10.008Z,46.74
2023-02-08T09:25:37.803Z,46.09
2023-02-08T09:28:05.251Z,46.07
2023-02-08T09:30:32.381Z,46.03
2023-02-08T09:32:59.501Z,45.63
2023-02-08T09:35:26.734Z,46.15
2023-02-08T09:37:56.019Z,45.32
2023-02-08T09:40:26.463Z,45.21
2023-02-08T09:43:08.293Z,45.72
2023-02-08T09:46:00.313Z,46.16
2023-02-08T09:48:41.327Z,46.11
2023-02-08T09:51:26.783Z,45.97
2023-02-08T09:54:00.345Z,45.56
2023-02-08T09:56:33.166Z,45.43
2023-02-08T09:59:02.207Z,44.80
2023-02-08T10:01:32.966Z,44.92
2023-02-08T10:04:38.015Z,44.06
2023-02-08T10:07:05.226Z,43.74
2023-02-08T10:09:32.525Z,43.13
2023-02-08T10:12:31.513Z,43.20
2023-02-08T10:15:32.287Z,42.82
2023-02-08T10:18:24.904Z,42.92
2023-02-08T10:21:16.864Z,42.89
2023-02-08T10:24:04.893Z,42.76
2023-02-08T10:26:49.183Z,43.24
2023-02-08T10:29:31.082Z,42.91
2023-02-08T10:32:13.084Z,42.81
2023-02-08T10:34:51.603Z,43.31
2023-02-08T10:37:29.145Z,43.00
2023-02-08T10:39:57.645Z,42.91
2023-02-08T10:42:29.044Z,43.44
2023-02-08T10:45:23.854Z,43.13
2023-02-08T10:48:06.121Z,43.20
2023-02-08T10:50:42.453Z,43.15
2023-02-08T10:53:17.066Z,43.19
2023-02-08T10:55:46.786Z,43.45
2023-02-08T10:58:17.426Z,43.36
2023-02-08T11:00:45.951Z,43.51
2023-02-08T11:03:18.222Z,43.15
2023-02-08T11:05:45.868Z,43.15
2023-02-08T11:08:20.139Z,43.01
2023-02-08T11:11:12.040Z,42.50
2023-02-08T11:13:44.923Z,42.15
2023-02-08T11:16:24.499Z,42.35
2023-02-08T11:18:58.644Z,42.19
2023-02-08T11:21:35.020Z,41.80
2023-02-08T11:24:05.941Z,41.83
2023-02-08T11:26:40.460Z,41.82
2023-02-08T11:29:27.114Z,41.63
2023-02-08T11:32:00.487Z,41.80
2023-02-08T11:34:38.891Z,41.90
2023-02-08T11:37:28.859Z,41.60
2023-02-08T11:39:58.365Z,41.65
2023-02-08T11:42:37.886Z,41.85
2023-02-08T11:45:05.984Z,41.79
2023-02-08T11:47:37.263Z,41.45
2023-02-08T11:50:07.644Z,41.75
2023-02-08T11:52:41.793Z,42.08
2023-02-08T11:55:18.108Z,42.17
2023-02-08T11:58:01.643Z,42.67
2023-02-08T12:00:34.345Z,42.46
2023-02-08T12:13:45.867Z,43.19
2023-02-08T12:16:43.074Z,43.21
2023-02-08T12:19:47.747Z,42.79
2023-02-08T12:22:25.192Z,43.31
2023-02-08T12:24:58.105Z,43.23
2023-02-08T12:27:28.574Z,42.60
2023-02-08T12:30:10.246Z,42.29
2023-02-08T12:33:17.104Z,41.97
2023-02-08T12:36:22.479Z,41.88
2023-02-08T12:39:29.160Z,41.17
2023-02-08T12:42:24.970Z,41.52
2023-02-08T12:45:15.335Z,40.92
2023-02-08T12:48:04.027Z,40.97
2023-02-08T12:50:49.449Z,40.46
2023-02-08T12:53:25.894Z,40.31
2023-02-08T12:55:56.614Z,40.37
2023-02-08T12:58:43.969Z,40.25
2023-02-08T13:01:18.277Z,40.32
2023-02-08T13:03:56.497Z,39.87
2023-02-08T13:06:32.378Z,39.52
2023-02-08T13:09:05.780Z,39.39
2023-02-08T13:11:40.379Z,37.80
2023-02-08T13:14:34.669Z,36.14
2023-02-08T13:17:12.790Z,34.19
2023-02-08T13:19:54.411Z,32.75
2023-02-08T13:22:27.017Z,30.50
2023-02-08T13:25:06.792Z,29.42
2023-02-08T13:27:34.452Z,27.77
2023-02-08T13:30:02.042Z,26.36
2023-02-08T13:32:43.563Z,25.94
2023-02-08T13:35:27.337Z,24.55
2023-02-08T13:38:06.594Z,23.42
2023-02-08T13:40:37.304Z,22.37
2023-02-08T13:43:37.294Z,20.72
2023-02-08T13:46:06.723Z,19.79
2023-02-08T13:49:02.991Z,18.27
2023-02-08T13:51:32.995Z,17.78
2023-02-08T13:54:00.504Z,16.97
2023-02-08T13:56:49.212Z,17.24
2023-02-08T13:59:28.388Z,18.09
2023-02-08T14:02:23.211Z,19.43
2023-02-08T14:04:53.265Z,20.72
2023-02-08T14:07:45.264Z,22.28
2023-02-08T14:10:32.144Z,23.04
2023-02-08T14:13:09.403Z,24.34
2023-02-08T14:15:39.544Z,25.35
2023-02-08T14:18:25.976Z,26.55
2023-02-08T14:21:31.429Z,27.48
2023-02-08T14:24:05.547Z,28.22
2023-02-08T14:26:33.020Z,29.01
2023-02-08T14:29:02.700Z,30.40
2023-02-08T14:31:38.661Z,30.77
2023-02-08T14:34:06.707Z,31.85
2023-02-08T14:36:37.287Z,32.66
2023-02-08T14:39:29.363Z,32.61
2023-02-08T14:42:20.544Z,33.32
2023-02-08T14:44:57.589Z,33.63
2023-02-08T14:47:24.602Z,34.44
2023-02-08T14:50:27.002Z,34.48
2023-02-08T14:53:08.045Z,35.31
2023-02-08T14:55:49.409Z,35.18
2023-02-08T14:58:26.220Z,35.45
2023-02-08T15:00:55.880Z,35.82
2023-02-08T15:03:24.700Z,36.24
2023-02-08T15:06:15.640Z,36.25
2023-02-08T15:08:42.971Z,35.93
2023-02-08T15:11:24.086Z,36.53
2023-02-08T15:13:54.570Z,36.96
2023-02-08T15:16:24.043Z,36.84
2023-02-08T15:18:52.451Z,38.01
2023-02-08T15:21:23.860Z,37.46
2023-02-08T15:24:13.724Z,37.98
2023-02-08T15:26:50.500Z,38.39
2023-02-08T15:29:42.888Z,38.70
2023-02-08T15:32:18.026Z,39.12
2023-02-08T15:34:50.602Z,38.77
2023-02-08T15:37:19.524Z,38.14
2023-02-08T15:39:51.200Z,39.18
2023-02-08T15:42:21.158Z,39.97
2023-02-08T15:44:48.304Z,39.76
2023-02-08T15:47:28.700Z,39.81
2023-02-08T15:49:56.545Z,40.05
2023-02-08T15:52:27.964Z,39.55
2023-02-08T15:54:55.200Z,41.05
2023-02-08T15:57:34.460Z,40.09
2023-02-08T16:00:05.408Z,40.75
2023-02-08T16:02:36.948Z,40.58
2023-02-08T16:05:18.119Z,41.17
2023-02-08T16:07:46.271Z,41.90
2023-02-08T16:10:28.169Z,41.40
2023-02-08T16:13:01.622Z,41.45
2023-02-08T16:15:40.862Z,41.13
2023-02-08T16:18:39.803Z,41.68
2023-02-08T16:21:21.672Z,42.23
2023-02-08T16:24:00.460Z,42.17
2023-02-08T16:26:36.109Z,42.36
2023-02-08T16:29:06.336Z,42.46
2023-02-08T16:31:35.672Z,43.22
2023-02-08T16:34:13.103Z,43.42
2023-02-08T16:36:43.647Z,43.59
2023-02-08T16:39:13.735Z,43.53
2023-02-08T16:42:06.529Z,44.25
2023-02-08T16:45:13.048Z,44.34
2023-02-08T16:48:04.238Z,44.38
2023-02-08T16:50:40.410Z,44.28
2023-02-08T16:53:07.908Z,44.64
2023-02-08T16:55:37.371Z,45.06
2023-02-08T16:58:04.429Z,45.22
2023-02-08T17:00:35.011Z,45.23
2023-02-08T17:03:02.610Z,45.75
2023-02-08T17:05:37.707Z,45.45
2023-02-08T17:08:08.156Z,44.85
2023-02-08T17:10:35.288Z,45.71
2023-02-08T17:13:20.742Z,45.91
2023-02-08T17:15:50.838Z,46.00
2023-02-08T17:18:17.994Z,46.12
2023-02-08T17:20:45.671Z,46.35
2023-02-08T17:23:15.663Z,46.64
2023-02-08T17:25:43.491Z,46.30
2023-02-08T17:28:21.227Z,46.95
2023-02-08T17:30:49.962Z,47.26
2023-02-08T17:33:20.489Z,47.39
2023-02-08T17:35:49.973Z,47.21
2023-02-08T17:38:17.858Z,47.37
2023-02-08T17:40:45.594Z,47.60
2023-02-08T17:43:13.764Z,47.57
2023-02-08T17:45:42.233Z,47.65
2023-02-08T17:48:09.832Z,47.35
2023-02-08T17:50:37.441Z,47.58
2023-02-08T17:53:04.654Z,47.30
2023-02-08T17:55:31.745Z,47.25
2023-02-08T17:57:58.764Z,47.65
2023-02-08T18:00:26.166Z,47.78
2023-02-08T18:02:55.600Z,47.52
2023-02-08T18:05:27.564Z,47.66
2023-02-08T18:07:56.452Z,47.54
2023-02-08T18:10:24.731Z,48.20
2023-02-08T18:12:52.017Z,48.19
2023-02-08T18:15:21.424Z,48.26
2023-02-08T18:17:50.649Z,48.38
2023-02-08T18:20:18.150Z,48.33
2023-02-08T18:22:45.845Z,48.60
2023-02-08T18:25:14.659Z,48.90
2023-02-08T18:27:41.972Z,49.28
2023-02-08T18:30:10.688Z,48.92
2023-02-08T18:32:37.743Z,49.12
2023-02-08T18:35:07.042Z,49.46
2023-02-08T18:37:35.521Z,49.58
2023-02-08T18:40:02.843Z,49.38
2023-02-08T18:42:29.840Z,49.48
2023-02-08T18:44:57.060Z,49.28
2023-02-08T18:47:24.238Z,49.47
2023-02-08T18:49:57.833Z,50.06
2023-02-08T18:52:24.963Z,49.83
2023-02-08T18:54:52.063Z,49.87
2023-02-08T18:57:19.589Z,49.73
2023-02-08T18:59:46.640Z,49.63
2023-02-08T19:02:21.376Z,49.77
2023-02-08T19:04:48.725Z,49.64
2023-02-08T19:07:15.749Z,49.33
2023-02-08T19:09:44.247Z,49.32
2023-02-08T19:12:15.730Z,49.39
2023-02-08T19:14:43.987Z,49.22
2023-02-08T19:17:13.594Z,49.12
2023-02-08T19:19:41.881Z,49.22
2023-02-08T19:22:08.895Z,49.03
2023-02-08T19:24:35.977Z,49.27
2023-02-08T19:27:03.482Z,49.23
2023-02-08T19:29:30.736Z,49.27
2023-02-08T19:31:58.514Z,49.46
2023-02-08T19:34:25.911Z,49.44
2023-02-08T19:36:55.130Z,49.36
2023-02-08T19:39:27.331Z,49.48
2023-02-08T19:41:55.198Z,49.56
2023-02-08T19:44:23.006Z,49.56
2023-02-08T19:46:53.101Z,49.60
2023-02-08T19:49:21.547Z,49.51
2023-02-08T19:51:48.630Z,49.52
2023-02-08T19:54:18.269Z,49.72
2023-02-08T19:56:46.129Z,49.76
2023-02-08T19:59:23.064Z,49.75
2023-02-08T20:01:50.683Z,49.79
2023-02-08T20:04:17.907Z,49.57
2023-02-08T20:06:45.344Z,49.63
2023-02-08T20:09:13.553Z,49.92
2023-02-08T20:11:55.864Z,49.82
2023-02-08T20:14:24.214Z,49.95
2023-02-08T20:16:51.408Z,50.10
2023-02-08T20:19:18.525Z,49.83
2023-02-08T20:21:45.624Z,50.16
2023-02-08T20:24:13.289Z,50.14
2023-02-08T20:26:42.648Z,50.09
2023-02-08T20:29:10.382Z,50.25
2023-02-08T20:31:40.920Z,50.28
2023-02-08T20:34:11.641Z,50.46
2023-02-08T20:36:42.805Z,50.76
2023-02-08T20:39:13.444Z,50.59
2023-02-08T20:41:44.463Z,50.93
2023-02-08T20:44:17.116Z,51.35
2023-02-08T20:46:44.821Z,51.43
2023-02-08T20:49:15.548Z,51.57
2023-02-08T20:51:43.556Z,51.76
2023-02-08T20:54:11.823Z,52.02
2023-02-08T20:56:39.450Z,52.33
2023-02-08T20:59:08.974Z,51.96
2023-02-08T21:01:37.145Z,52.20
2023-02-08T21:04:04.563Z,52.48
2023-02-08T21:06:37.326Z,52.54
2023-02-08T21:09:08.125Z,52.49
2023-02-08T21:11:36.313Z,52.60
2023-02-08T21:14:04.153Z,52.79
2023-02-08T21:16:31.971Z,52.49
2023-02-08T21:18:59.846Z,52.48
2023-02-08T21:21:28.233Z,52.42
2023-02-08T21:23:56.938Z,52.58
2023-02-08T21:26:25.144Z,52.58
2023-02-08T21:28:53.336Z,52.67
2023-02-08T21:31:22.411Z,52.76
2023-02-08T21:33:50.974Z,52.59
2023-02-08T21:36:21.514Z,52.60
2023-02-08T21:38:48.934Z,52.71
2023-02-08T21:41:22.442Z,53.08
2023-02-08T21:43:51.002Z,52.94
2023-02-08T21:46:18.778Z,52.77
2023-02-08T21:49:04.705Z,53.13
2023-02-08T21:51:51.012Z,52.94
2023-02-08T21:54:41.958Z,53.11
2023-02-08T21:57:30.511Z,53.35
2023-02-08T21:59:59.682Z,53.49
2023-02-08T22:02:29.364Z,53.49
2023-02-08T22:04:59.401Z,53.66
2023-02-08T22:07:27.839Z,53.75
2023-02-08T22:09:55.498Z,54.28
2023-02-08T22:12:23.369Z,54.35
2023-02-08T22:14:51.016Z,54.31
2023-02-08T22:17:18.583Z,53.92
2023-02-08T22:19:45.626Z,54.32
2023-02-08T22:22:12.728Z,53.90
2023-02-08T22:24:39.968Z,54.27
2023-02-08T22:27:07.089Z,54.19
2023-02-08T22:29:34.520Z,53.91
2023-02-08T22:32:01.691Z,54.15
2023-02-08T22:34:28.861Z,54.17
2023-02-08T22:36:55.991Z,53.91
2023-02-08T22:39:23.153Z,54.22
2023-02-08T22:41:50.245Z,53.88
2023-02-08T22:44:17.325Z,54.16
2023-02-08T22:46:44.358Z,53.86
2023-02-08T22:49:11.626Z,53.78
2023-02-08T22:51:38.776Z,54.13
2023-02-08T22:54:05.826Z,54.04
2023-02-08T22:56:34.027Z,54.08
2023-02-08T22:59:01.151Z,54.17
2023-02-08T23:01:28.571Z,54.06
2023-02-08T23:03:55.628Z,54.07
2023-02-08T23:06:22.766Z,54.13
2023-02-08T23:08:49.951Z,54.34
2023-02-08T23:11:17.862Z,54.00
2023-02-08T23:13:44.977Z,54.38
2023-02-08T23:16:14.112Z,54.25
2023-02-08T23:18:42.421Z,54.23
2023-02-08T23:21:16.787Z,54.37
2023-02-08T23:23:44.403Z,54.77
2023-02-08T23:26:15.036Z,54.98
2023-02-08T23:28:42.161Z,54.94
2023-02-08T23:31:11.689Z,55.58
2023-02-08T23:33:39.861Z,55.28
2023-02-08T23:36:07.421Z,55.19
2023-02-08T23:38:35.320Z,54.72
2023-02-08T23:41:07.506Z,54.75
2023-02-08T23:43:34.948Z,54.70
2023-02-08T23:46:09.325Z,55.35
2023-02-08T23:48:39.020Z,55.13
2023-02-08T23:51:07.603Z,55.30
2023-02-08T23:53:37.076Z,55.40
2023-02-08T23:56:19.805Z,55.72
2023-02-08T23:58:49.046Z,55.31
